Terminal Aerodrome Forecast
Issued by NWS

Current Version | Previous Version | Text Only | Print | Product List | Glossary On
Versions: 1 2 3 4 5 6 7 8 9 10 11 12 13 14 15 16 17 18 19 20 21 22 23 24 25 26 27 28 29 30 31
375
FTUS46 KLOX 272353
TAFOXR
TAF
KOXR 272353Z 2800/2824 27011KT P6SM SKC
     FM280500 VRB03KT P6SM SCT005
     FM280800 VRB03KT 5SM BR BKN005
     FM281100 VRB03KT 2SM BR OVC003
     FM281500 VRB04KT 5SM BR BKN006
     FM282100 27012KT P6SM FEW010=

USA.gov is the U.S. government's official web portal to all federal, state and local government web resources and services.